Time;durP1;ratioP1;P1;durP2;ratioP2;P2;SDS_P1;SDS_P2;PMS_P1;PMS_P2;Temp;Humidity;BMP_temperature;BMP_pressure;BME280_temperature;BME280_humidity;BME280_pressure;Samples;Min_cycle;Max_cycle;Signal;HPM_P1;HPM_P2
2022/10/01 00:02:03;;;;;;;7.30;4.40;;;;;;;;;;5075154;28;20445;-65
2022/10/01 00:04:30;;;;;;;4.40;3.80;;;;;;;;;;5074804;28;20882;-65
2022/10/01 00:07:01;;;;;;;4.47;4.07;;;;;;;;;;5075463;28;20449;-65
2022/10/01 00:09:29;;;;;;;4.00;3.70;;;;;;;;;;5075150;28;20517;-66
2022/10/01 00:11:58;;;;;;;3.93;3.63;;;;;;;;;;5074456;28;20939;-65
2022/10/01 00:14:26;;;;;;;5.63;3.90;;;;;;;;;;5074662;28;20496;-65
2022/10/01 00:16:54;;;;;;;5.90;4.70;;;;;;;;;;5074026;28;20473;-65
2022/10/01 00:19:22;;;;;;;4.77;4.07;;;;;;;;;;5074643;28;20811;-66
2022/10/01 00:21:49;;;;;;;4.83;4.33;;;;;;;;;;5073708;28;20483;-65
2022/10/01 00:24:16;;;;;;;4.40;4.00;;;;;;;;;;5074331;28;20441;-65
2022/10/01 00:26:44;;;;;;;4.30;4.00;;;;;;;;;;5074445;28;20441;-65
2022/10/01 00:29:13;;;;;;;4.10;3.77;;;;;;;;;;5074370;28;20449;-65
2022/10/01 00:31:43;;;;;;;4.33;3.93;;;;;;;;;;5074427;28;20440;-65
2022/10/01 00:34:13;;;;;;;5.10;4.60;;;;;;;;;;5074331;28;20436;-66
2022/10/01 00:36:41;;;;;;;5.20;4.20;;;;;;;;;;5073970;28;20420;-65
2022/10/01 00:39:09;;;;;;;4.40;4.00;;;;;;;;;;5073907;28;20445;-65
2022/10/01 00:41:36;;;;;;;4.90;4.50;;;;;;;;;;5073730;28;20963;-65
2022/10/01 00:44:04;;;;;;;4.83;4.33;;;;;;;;;;5073830;28;20926;-65
2022/10/01 00:46:38;;;;;;;4.30;3.90;;;;;;;;;;5073699;28;20495;-66
2022/10/01 00:49:07;;;;;;;4.40;4.00;;;;;;;;;;5073757;28;20440;-65
2022/10/01 00:51:38;;;;;;;4.23;3.60;;;;;;;;;;5073894;28;20797;-65
2022/10/01 00:54:09;;;;;;;5.10;4.13;;;;;;;;;;5074065;28;20783;-67
2022/10/01 00:56:37;;;;;;;4.90;4.33;;;;;;;;;;5073837;28;20464;-65
2022/10/01 00:59:05;;;;;;;4.73;4.30;;;;;;;;;;5073466;28;20456;-65
2022/10/01 01:01:32;;;;;;;4.70;4.30;;;;;;;;;;5073756;28;20804;-65
2022/10/01 01:04:00;;;;;;;5.13;4.60;;;;;;;;;;5073400;28;20931;-66
2022/10/01 01:06:27;;;;;;;4.50;4.10;;;;;;;;;;5073744;28;20480;-66
2022/10/01 01:08:56;;;;;;;4.90;4.50;;;;;;;;;;5073973;28;20443;-65
2022/10/01 01:11:29;;;;;;;5.30;4.90;;;;;;;;;;5073217;28;20437;-66
2022/10/01 01:13:59;;;;;;;6.00;5.40;;;;;;;;;;5073709;28;20475;-66
2022/10/01 01:16:28;;;;;;;5.73;5.33;;;;;;;;;;5073111;28;20476;-66
2022/10/01 01:19:00;;;;;;;6.20;5.60;;;;;;;;;;5073711;28;20465;-66
2022/10/01 01:21:30;;;;;;;7.70;5.90;;;;;;;;;;5073577;28;20429;-66
2022/10/01 01:24:15;;;;;;;7.63;6.03;;;;;;;;;;5074100;28;20440;-66
2022/10/01 01:26:50;;;;;;;6.93;6.33;;;;;;;;;;5073516;28;20466;-66
2022/10/01 01:29:21;;;;;;;8.60;7.70;;;;;;;;;;5073753;28;20429;-66
2022/10/01 01:31:48;;;;;;;7.20;5.97;;;;;;;;;;5073167;28;20433;-66
2022/10/01 01:34:19;;;;;;;8.17;6.80;;;;;;;;;;5072179;28;21001;-65
2022/10/01 01:36:48;;;;;;;6.60;6.00;;;;;;;;;;5073397;28;20443;-66
2022/10/01 01:39:16;;;;;;;8.03;7.00;;;;;;;;;;5073237;28;20440;-65
2022/10/01 01:41:48;;;;;;;8.67;7.57;;;;;;;;;;5073215;28;20938;-65
2022/10/01 01:44:17;;;;;;;8.70;7.90;;;;;;;;;;5073335;28;20425;-65
2022/10/01 01:46:48;;;;;;;8.50;7.30;;;;;;;;;;5073394;28;20492;-65
2022/10/01 01:49:16;;;;;;;11.90;7.33;;;;;;;;;;5073181;28;20929;-66
2022/10/01 01:51:47;;;;;;;8.97;7.93;;;;;;;;;;5073065;28;20818;-65
2022/10/01 01:54:14;;;;;;;9.70;8.77;;;;;;;;;;5073768;28;20432;-66
2022/10/01 01:56:41;;;;;;;11.93;9.17;;;;;;;;;;5073264;28;20728;-66
2022/10/01 01:59:09;;;;;;;10.13;9.10;;;;;;;;;;5073109;28;20521;-66
2022/10/01 02:01:37;;;;;;;9.90;9.10;;;;;;;;;;5073345;28;20441;-66
2022/10/01 02:04:08;;;;;;;10.30;9.20;;;;;;;;;;5072854;28;20933;-65
2022/10/01 02:06:41;;;;;;;12.97;9.63;;;;;;;;;;5073072;28;20821;-66
2022/10/01 02:09:12;;;;;;;10.60;9.60;;;;;;;;;;5073578;28;20422;-66
2022/10/01 02:11:45;;;;;;;11.50;9.57;;;;;;;;;;5072606;28;20433;-66
2022/10/01 02:14:16;;;;;;;10.00;8.10;;;;;;;;;;5073261;28;20420;-66
2022/10/01 02:16:47;;;;;;;9.33;8.47;;;;;;;;;;5072196;28;20475;-66
2022/10/01 02:19:19;;;;;;;10.53;9.50;;;;;;;;;;5073217;28;20843;-65
2022/10/01 02:21:50;;;;;;;9.60;8.70;;;;;;;;;;5072774;28;20429;-66
2022/10/01 02:24:22;;;;;;;12.13;8.80;;;;;;;;;;5073428;28;20437;-67
2022/10/01 02:26:51;;;;;;;12.30;8.13;;;;;;;;;;5072991;28;20468;-66
2022/10/01 02:29:20;;;;;;;11.53;9.10;;;;;;;;;;5072749;28;20444;-65
2022/10/01 02:31:52;;;;;;;8.47;7.70;;;;;;;;;;5072638;28;20862;-66
2022/10/01 02:34:21;;;;;;;8.73;7.93;;;;;;;;;;5073107;28;20425;-66
2022/10/01 02:36:49;;;;;;;10.10;7.53;;;;;;;;;;5072258;28;20530;-67
2022/10/01 02:39:18;;;;;;;9.50;8.03;;;;;;;;;;5072876;28;20440;-66
2022/10/01 02:41:46;;;;;;;9.13;8.33;;;;;;;;;;5072546;28;20800;-66
2022/10/01 02:44:15;;;;;;;10.00;9.00;;;;;;;;;;5072603;28;20437;-66
2022/10/01 02:46:44;;;;;;;10.50;8.50;;;;;;;;;;5075201;28;21061;-66
2022/10/01 02:49:13;;;;;;;19.90;7.33;;;;;;;;;;5075965;28;20440;-66
2022/10/01 02:51:45;;;;;;;8.77;7.73;;;;;;;;;;5076207;28;20472;-66
2022/10/01 02:54:15;;;;;;;13.17;8.33;;;;;;;;;;5076211;28;20519;-66
2022/10/01 02:59:27;;;;;;;11.68;8.63;;;;;;;;;;5075967;28;20182;-66
2022/10/01 03:01:54;;;;;;;10.10;9.10;;;;;;;;;;5076023;28;20198;-66
2022/10/01 03:04:21;;;;;;;10.93;8.50;;;;;;;;;;5075754;28;20444;-66
2022/10/01 03:06:50;;;;;;;9.20;8.30;;;;;;;;;;5075514;28;20476;-66
2022/10/01 03:09:17;;;;;;;9.30;8.43;;;;;;;;;;5075951;28;20470;-66
2022/10/01 03:11:44;;;;;;;10.93;8.13;;;;;;;;;;5075789;28;20459;-66
2022/10/01 03:14:11;;;;;;;9.43;8.63;;;;;;;;;;5076378;28;20492;-66
2022/10/01 03:16:39;;;;;;;9.40;7.80;;;;;;;;;;5075507;28;20479;-67
2022/10/01 03:19:06;;;;;;;9.50;8.60;;;;;;;;;;5076101;28;20441;-66
2022/10/01 03:21:33;;;;;;;13.10;8.30;;;;;;;;;;5075627;28;20445;-66
2022/10/01 03:24:02;;;;;;;11.40;8.27;;;;;;;;;;5075662;28;20491;-66
2022/10/01 03:26:29;;;;;;;9.23;8.43;;;;;;;;;;5075173;28;20472;-66
2022/10/01 03:28:56;;;;;;;8.98;8.18;;;;;;;;;;5075131;28;20437;-66
2022/10/01 03:31:23;;;;;;;8.00;7.30;;;;;;;;;;5075085;28;20194;-66
2022/10/01 03:33:50;;;;;;;8.45;7.75;;;;;;;;;;5075151;28;20276;-66
2022/10/01 03:36:17;;;;;;;9.97;8.30;;;;;;;;;;5075180;28;20198;-66
2022/10/01 03:38:44;;;;;;;7.67;6.97;;;;;;;;;;5075011;28;20441;-66
2022/10/01 03:41:13;;;;;;;9.45;8.50;;;;;;;;;;5075009;28;20448;-66
2022/10/01 03:43:40;;;;;;;11.30;7.83;;;;;;;;;;5075414;28;20654;-66
2022/10/01 03:46:07;;;;;;;8.60;7.70;;;;;;;;;;5075192;28;20472;-66
2022/10/01 03:48:34;;;;;;;9.10;8.30;;;;;;;;;;5075374;28;20800;-66
2022/10/01 03:51:02;;;;;;;9.10;8.30;;;;;;;;;;5074871;28;20196;-66
2022/10/01 03:53:30;;;;;;;10.27;8.50;;;;;;;;;;5075190;28;20196;-67
2022/10/01 03:55:57;;;;;;;9.37;7.83;;;;;;;;;;5073731;28;20320;-67
2022/10/01 03:58:26;;;;;;;8.30;7.60;;;;;;;;;;5073474;28;20511;-66
2022/10/01 04:00:54;;;;;;;6.90;6.30;;;;;;;;;;5074204;28;20451;-66
2022/10/01 04:03:22;;;;;;;8.20;7.40;;;;;;;;;;5074435;28;20485;-66
2022/10/01 04:05:49;;;;;;;8.07;7.28;;;;;;;;;;5074333;28;20221;-66
2022/10/01 04:08:16;;;;;;;7.55;6.90;;;;;;;;;;5074647;28;20204;-66
2022/10/01 04:10:44;;;;;;;7.65;6.85;;;;;;;;;;5074208;28;20671;-67
2022/10/01 04:13:11;;;;;;;9.25;8.07;;;;;;;;;;5074484;28;20205;-66
2022/10/01 04:15:39;;;;;;;7.80;7.10;;;;;;;;;;5074701;28;20190;-66
2022/10/01 04:18:07;;;;;;;8.35;7.55;;;;;;;;;;5073862;28;20233;-66
2022/10/01 04:20:34;;;;;;;8.00;7.30;;;;;;;;;;5074125;28;20204;-66
2022/10/01 04:23:01;;;;;;;8.43;7.63;;;;;;;;;;5074325;28;20276;-67
2022/10/01 04:25:29;;;;;;;9.93;8.93;;;;;;;;;;5074207;28;20437;-67
2022/10/01 04:27:57;;;;;;;7.90;7.13;;;;;;;;;;5074294;28;20553;-67
2022/10/01 04:30:25;;;;;;;7.83;7.10;;;;;;;;;;5074300;28;20191;-66
2022/10/01 04:32:54;;;;;;;8.27;7.50;;;;;;;;;;5073524;28;20441;-67
2022/10/01 04:35:21;;;;;;;7.70;7.00;;;;;;;;;;5073887;28;20452;-67
2022/10/01 04:37:49;;;;;;;8.30;7.50;;;;;;;;;;5073786;28;20440;-67
2022/10/01 04:40:16;;;;;;;8.30;7.45;;;;;;;;;;5073811;28;20448;-66
2022/10/01 04:42:43;;;;;;;7.93;6.70;;;;;;;;;;5073729;28;20209;-66
2022/10/01 04:45:12;;;;;;;8.05;7.30;;;;;;;;;;5073725;28;20456;-66
2022/10/01 04:47:39;;;;;;;7.90;7.20;;;;;;;;;;5073422;28;20222;-67
2022/10/01 04:50:08;;;;;;;7.80;7.10;;;;;;;;;;5073667;28;20913;-66
2022/10/01 04:52:36;;;;;;;7.93;7.03;;;;;;;;;;5073602;28;20441;-66
2022/10/01 04:55:03;;;;;;;6.87;6.27;;;;;;;;;;5073527;28;20198;-66
2022/10/01 04:57:30;;;;;;;7.63;6.97;;;;;;;;;;5074273;28;20448;-67
2022/10/01 04:59:57;;;;;;;7.90;6.57;;;;;;;;;;5073322;28;20934;-67
2022/10/01 05:02:24;;;;;;;7.20;6.65;;;;;;;;;;5073666;28;20945;-66
2022/10/01 05:04:51;;;;;;;7.60;6.88;;;;;;;;;;5073167;28;20202;-67
2022/10/01 05:07:21;;;;;;;6.53;5.90;;;;;;;;;;5073521;28;20311;-66
2022/10/01 05:09:48;;;;;;;8.50;6.55;;;;;;;;;;5073062;28;20475;-66
2022/10/01 05:12:15;;;;;;;6.65;5.97;;;;;;;;;;5073273;28;20190;-66
2022/10/01 05:14:42;;;;;;;6.43;5.60;;;;;;;;;;5073380;28;20194;-66
2022/10/01 05:17:09;;;;;;;5.90;5.40;;;;;;;;;;5072987;28;20495;-67
2022/10/01 05:19:37;;;;;;;8.77;5.70;;;;;;;;;;5073333;28;20528;-67
2022/10/01 05:22:04;;;;;;;6.20;5.60;;;;;;;;;;5073305;28;20467;-68
2022/10/01 05:24:33;;;;;;;6.17;5.37;;;;;;;;;;5073473;28;20444;-67
2022/10/01 05:27:00;;;;;;;5.63;5.10;;;;;;;;;;5073123;28;20472;-67
2022/10/01 05:29:27;;;;;;;5.47;4.97;;;;;;;;;;5072916;28;20447;-67
2022/10/01 05:31:54;;;;;;;5.57;4.97;;;;;;;;;;5073024;28;20501;-68
2022/10/01 05:34:22;;;;;;;5.60;5.10;;;;;;;;;;5072886;28;20547;-68
2022/10/01 05:36:49;;;;;;;5.50;5.00;;;;;;;;;;5072836;28;20441;-68
2022/10/01 05:39:16;;;;;;;5.47;4.80;;;;;;;;;;5072830;28;20442;-67
2022/10/01 05:41:44;;;;;;;5.57;5.07;;;;;;;;;;5073297;28;20497;-68
2022/10/01 05:44:12;;;;;;;4.90;4.50;;;;;;;;;;5072720;28;20440;-68
2022/10/01 05:46:39;;;;;;;4.97;4.57;;;;;;;;;;5073105;28;20483;-68
2022/10/01 05:49:07;;;;;;;5.50;4.90;;;;;;;;;;5072915;28;20542;-68
2022/10/01 05:51:35;;;;;;;5.32;4.88;;;;;;;;;;5072562;28;20445;-68
2022/10/01 05:54:03;;;;;;;4.63;4.20;;;;;;;;;;5072820;28;20194;-68
2022/10/01 05:56:30;;;;;;;4.93;4.20;;;;;;;;;;5073034;28;20494;-67
2022/10/01 05:58:59;;;;;;;4.50;4.20;;;;;;;;;;5072913;28;20436;-68
2022/10/01 06:01:28;;;;;;;5.17;4.70;;;;;;;;;;5073561;28;20523;-69
2022/10/01 06:03:55;;;;;;;4.90;4.50;;;;;;;;;;5073219;28;20554;-67
2022/10/01 06:06:23;;;;;;;4.87;4.57;;;;;;;;;;5072987;28;20476;-67
2022/10/01 06:08:50;;;;;;;4.40;4.00;;;;;;;;;;5072649;28;20803;-68
2022/10/01 06:11:17;;;;;;;4.40;4.00;;;;;;;;;;5073003;28;20445;-68
2022/10/01 06:13:45;;;;;;;5.93;4.22;;;;;;;;;;5072992;28;20532;-68
2022/10/01 06:16:14;;;;;;;4.57;4.17;;;;;;;;;;5072323;28;20244;-67
2022/10/01 06:18:41;;;;;;;8.03;4.90;;;;;;;;;;5072796;28;20793;-68
2022/10/01 06:21:09;;;;;;;5.37;4.93;;;;;;;;;;5074676;28;20980;-68
2022/10/01 06:23:36;;;;;;;7.03;4.37;;;;;;;;;;5076579;28;20444;-68
2022/10/01 06:26:04;;;;;;;6.80;4.80;;;;;;;;;;5076291;28;20479;-68
2022/10/01 06:28:32;;;;;;;4.73;4.20;;;;;;;;;;5076645;28;20524;-68
2022/10/01 06:31:01;;;;;;;5.07;4.30;;;;;;;;;;5076558;28;20455;-67
2022/10/01 06:33:30;;;;;;;3.90;3.60;;;;;;;;;;5076360;28;20957;-68
2022/10/01 06:35:58;;;;;;;3.87;3.57;;;;;;;;;;5076602;28;20440;-68
2022/10/01 06:38:25;;;;;;;4.23;3.83;;;;;;;;;;5076581;28;20443;-68
2022/10/01 06:40:53;;;;;;;4.17;3.77;;;;;;;;;;5074125;28;20457;-68
2022/10/01 06:43:20;;;;;;;4.33;4.00;;;;;;;;;;5076354;28;20498;-67
2022/10/01 06:45:47;;;;;;;4.33;4.03;;;;;;;;;;5075911;28;20444;-67
2022/10/01 06:48:15;;;;;;;3.80;3.50;;;;;;;;;;5076367;28;20471;-68
2022/10/01 06:50:45;;;;;;;4.90;4.50;;;;;;;;;;5076162;28;20460;-67
2022/10/01 06:53:13;;;;;;;4.60;4.30;;;;;;;;;;5075730;28;20519;-68
2022/10/01 06:55:42;;;;;;;4.47;4.07;;;;;;;;;;5075830;28;20967;-68
2022/10/01 06:58:13;;;;;;;8.03;5.40;;;;;;;;;;5075785;28;20537;-69
2022/10/01 07:00:40;;;;;;;4.77;4.37;;;;;;;;;;5075924;28;20424;-68
2022/10/01 07:03:09;;;;;;;5.30;4.70;;;;;;;;;;5075697;28;20944;-69
2022/10/01 07:05:37;;;;;;;7.20;5.10;;;;;;;;;;5075446;28;20441;-69
2022/10/01 07:08:05;;;;;;;5.67;5.17;;;;;;;;;;5075920;28;20563;-68
2022/10/01 07:10:34;;;;;;;5.13;4.73;;;;;;;;;;5075710;28;20527;-68
2022/10/01 07:13:06;;;;;;;5.70;5.20;;;;;;;;;;5076092;28;20441;-67
2022/10/01 07:15:33;;;;;;;5.30;4.90;;;;;;;;;;5075849;28;20444;-68
2022/10/01 07:18:01;;;;;;;4.93;4.50;;;;;;;;;;5075982;28;20478;-68
2022/10/01 07:20:28;;;;;;;6.03;5.57;;;;;;;;;;5075723;28;20495;-69
2022/10/01 07:22:57;;;;;;;5.10;4.73;;;;;;;;;;5076213;28;20436;-69
2022/10/01 07:25:26;;;;;;;5.80;5.30;;;;;;;;;;5075647;28;20447;-69
2022/10/01 07:27:55;;;;;;;6.40;5.90;;;;;;;;;;5075614;28;20476;-68
2022/10/01 07:30:22;;;;;;;6.83;5.53;;;;;;;;;;5075628;28;20449;-69
2022/10/01 07:32:50;;;;;;;6.10;5.70;;;;;;;;;;5075088;28;20452;-69
2022/10/01 07:35:18;;;;;;;6.63;6.03;;;;;;;;;;5075485;28;20446;-68
2022/10/01 07:37:46;;;;;;;6.77;6.17;;;;;;;;;;5075686;28;20808;-68
2022/10/01 07:40:15;;;;;;;6.60;6.00;;;;;;;;;;5074976;28;20436;-69
2022/10/01 07:42:43;;;;;;;7.80;6.67;;;;;;;;;;5075340;28;20444;-69
2022/10/01 07:45:11;;;;;;;7.60;7.00;;;;;;;;;;5075119;28;20933;-69
2022/10/01 07:47:38;;;;;;;8.13;7.40;;;;;;;;;;5075552;28;20575;-69
2022/10/01 07:50:06;;;;;;;8.87;8.07;;;;;;;;;;5075004;28;20441;-69
2022/10/01 07:52:33;;;;;;;8.95;8.15;;;;;;;;;;5075170;28;20442;-69
2022/10/01 07:55:00;;;;;;;9.10;8.23;;;;;;;;;;5075172;28;20221;-68
2022/10/01 07:57:28;;;;;;;9.17;8.37;;;;;;;;;;5075073;28;20460;-68
2022/10/01 07:59:56;;;;;;;10.43;9.37;;;;;;;;;;5075033;28;20494;-68
2022/10/01 08:02:24;;;;;;;9.83;8.73;;;;;;;;;;5074931;28;20440;-68
2022/10/01 08:07:36;;;;;;;9.67;8.87;;;;;;;;;;5074599;28;20457;-68
2022/10/01 08:10:04;;;;;;;11.97;10.77;;;;;;;;;;5075222;28;20446;-68
2022/10/01 08:12:31;;;;;;;11.67;10.57;;;;;;;;;;5074639;28;20498;-69
2022/10/01 08:15:01;;;;;;;12.73;10.60;;;;;;;;;;5074791;28;20446;-68
2022/10/01 08:17:28;;;;;;;11.07;9.97;;;;;;;;;;5074728;28;20587;-68
2022/10/01 08:19:55;;;;;;;12.03;11.03;;;;;;;;;;5074509;28;20453;-69
2022/10/01 08:22:22;;;;;;;11.20;10.07;;;;;;;;;;5074404;28;20441;-69
2022/10/01 08:24:50;;;;;;;11.93;10.97;;;;;;;;;;5074303;28;20455;-70
2022/10/01 08:27:17;;;;;;;10.87;9.77;;;;;;;;;;5074531;28;20480;-69
2022/10/01 08:29:44;;;;;;;11.60;9.97;;;;;;;;;;5074438;28;20456;-68
2022/10/01 08:32:13;;;;;;;10.77;9.77;;;;;;;;;;5074581;28;20440;-69
2022/10/01 08:34:40;;;;;;;10.60;9.70;;;;;;;;;;5074804;28;20452;-70
2022/10/01 08:37:07;;;;;;;10.50;9.50;;;;;;;;;;5073944;28;20935;-69
2022/10/01 08:39:35;;;;;;;9.97;9.07;;;;;;;;;;5074203;28;20544;-69
2022/10/01 08:42:06;;;;;;;10.93;9.93;;;;;;;;;;5073730;28;20443;-69
2022/10/01 08:44:42;;;;;;;11.50;10.43;;;;;;;;;;5073862;28;20482;-70
2022/10/01 08:47:16;;;;;;;15.27;10.60;;;;;;;;;;5072401;28;20450;-69
2022/10/01 08:49:48;;;;;;;10.67;9.67;;;;;;;;;;5073386;28;20434;-69
2022/10/01 08:52:20;;;;;;;11.27;10.10;;;;;;;;;;5073608;28;20437;-69
2022/10/01 08:54:49;;;;;;;10.67;9.90;;;;;;;;;;5073614;28;20423;-69
2022/10/01 08:57:18;;;;;;;10.87;9.97;;;;;;;;;;5073203;28;20942;-69
2022/10/01 08:59:47;;;;;;;10.23;9.23;;;;;;;;;;5073896;28;20445;-68
2022/10/01 09:02:18;;;;;;;10.93;10.03;;;;;;;;;;5073250;28;20964;-69
2022/10/01 09:04:47;;;;;;;10.27;9.33;;;;;;;;;;5074074;28;20775;-68
2022/10/01 09:07:19;;;;;;;10.53;9.60;;;;;;;;;;5073715;28;20443;-68
2022/10/01 09:09:55;;;;;;;9.27;8.57;;;;;;;;;;5073890;28;20529;-68
2022/10/01 09:12:29;;;;;;;9.77;8.97;;;;;;;;;;5073171;28;20426;-68
2022/10/01 09:15:15;;;;;;;9.73;8.73;;;;;;;;;;5073500;28;20427;-69
2022/10/01 09:17:54;;;;;;;9.60;7.43;;;;;;;;;;5073400;28;20481;-69
2022/10/01 09:20:26;;;;;;;8.57;7.83;;;;;;;;;;5073434;28;20438;-68
2022/10/01 09:23:01;;;;;;;9.27;8.30;;;;;;;;;;5072747;28;20465;-68
2022/10/01 09:25:29;;;;;;;8.47;7.77;;;;;;;;;;5073445;28;20517;-68
2022/10/01 09:28:00;;;;;;;8.00;7.40;;;;;;;;;;5072843;28;20478;-68
2022/10/01 09:30:29;;;;;;;7.07;6.47;;;;;;;;;;5073324;28;20423;-68
2022/10/01 09:32:58;;;;;;;8.13;7.23;;;;;;;;;;5072861;28;20442;-69
2022/10/01 09:35:33;;;;;;;10.97;6.77;;;;;;;;;;5073405;28;20443;-68
2022/10/01 09:38:03;;;;;;;7.27;6.57;;;;;;;;;;5073172;28;20821;-68
2022/10/01 09:40:34;;;;;;;7.97;6.50;;;;;;;;;;5073357;28;20477;-68
2022/10/01 09:43:02;;;;;;;6.73;5.93;;;;;;;;;;5072826;28;20434;-69
2022/10/01 09:45:29;;;;;;;9.33;6.50;;;;;;;;;;5073237;28;20447;-69
2022/10/01 09:48:01;;;;;;;6.53;5.80;;;;;;;;;;5073068;28;20481;-68
2022/10/01 09:50:32;;;;;;;7.90;5.23;;;;;;;;;;5073309;28;20813;-69
2022/10/01 09:53:00;;;;;;;8.00;5.13;;;;;;;;;;5072720;28;20450;-68
2022/10/01 09:55:30;;;;;;;6.33;5.83;;;;;;;;;;5072226;28;20535;-68
2022/10/01 09:58:00;;;;;;;5.73;4.70;;;;;;;;;;5072635;28;20481;-68
2022/10/01 10:00:27;;;;;;;9.90;6.00;;;;;;;;;;5072677;28;20443;-68
2022/10/01 10:02:56;;;;;;;5.53;4.40;;;;;;;;;;5072609;28;20448;-68
2022/10/01 10:05:24;;;;;;;5.50;4.70;;;;;;;;;;5073107;28;20450;-67
2022/10/01 10:07:54;;;;;;;6.20;4.83;;;;;;;;;;5072636;28;20573;-68
2022/10/01 10:10:23;;;;;;;6.30;4.33;;;;;;;;;;5072815;28;20446;-67
2022/10/01 10:12:55;;;;;;;8.60;4.93;;;;;;;;;;5073295;28;20446;-68
2022/10/01 10:15:25;;;;;;;6.30;4.33;;;;;;;;;;5072557;28;20433;-67
2022/10/01 10:17:54;;;;;;;4.37;3.77;;;;;;;;;;5071991;28;20594;-69
2022/10/01 10:20:24;;;;;;;6.40;4.87;;;;;;;;;;5072325;28;20459;-68
2022/10/01 10:22:53;;;;;;;9.40;3.90;;;;;;;;;;5072580;28;20443;-68
2022/10/01 10:25:23;;;;;;;5.83;5.37;;;;;;;;;;5072763;28;20443;-67
2022/10/01 10:27:53;;;;;;;6.33;4.90;;;;;;;;;;5072268;28;20970;-67
2022/10/01 10:30:21;;;;;;;6.40;4.60;;;;;;;;;;5072593;28;20606;-67
2022/10/01 10:32:48;;;;;;;5.30;4.80;;;;;;;;;;5072300;28;20453;-68
2022/10/01 10:35:17;;;;;;;7.53;4.50;;;;;;;;;;5072375;28;20931;-68
2022/10/01 10:37:47;;;;;;;6.57;4.50;;;;;;;;;;5072572;28;20439;-67
2022/10/01 10:40:18;;;;;;;5.60;5.10;;;;;;;;;;5072428;28;20461;-67
2022/10/01 10:42:48;;;;;;;5.43;4.83;;;;;;;;;;5072163;28;20442;-68
2022/10/01 10:45:18;;;;;;;6.73;4.47;;;;;;;;;;5072156;28;20446;-67
2022/10/01 10:47:46;;;;;;;6.00;5.00;;;;;;;;;;5072109;28;20459;-68
2022/10/01 10:50:20;;;;;;;8.47;4.40;;;;;;;;;;5072430;28;20503;-67
2022/10/01 10:52:47;;;;;;;6.23;5.63;;;;;;;;;;5072753;28;20424;-67
2022/10/01 10:55:23;;;;;;;7.00;4.80;;;;;;;;;;5072341;28;20453;-67
2022/10/01 10:57:51;;;;;;;9.20;5.20;;;;;;;;;;5072203;28;20437;-68
2022/10/01 11:00:19;;;;;;;7.70;4.90;;;;;;;;;;5072387;28;20447;-67
2022/10/01 11:02:50;;;;;;;9.13;4.73;;;;;;;;;;5071979;28;20453;-68
2022/10/01 11:05:19;;;;;;;10.93;4.77;;;;;;;;;;5072604;28;20532;-67
2022/10/01 11:07:46;;;;;;;5.50;4.40;;;;;;;;;;5075108;28;20935;-66
2022/10/01 11:10:28;;;;;;;6.60;4.93;;;;;;;;;;5075692;28;20441;-68
2022/10/01 11:13:02;;;;;;;6.77;5.47;;;;;;;;;;5075761;28;20934;-67
2022/10/01 11:15:42;;;;;;;6.10;5.10;;;;;;;;;;5075879;28;20560;-68
2022/10/01 11:18:19;;;;;;;8.00;5.80;;;;;;;;;;5075046;28;20664;-68
2022/10/01 11:20:53;;;;;;;5.40;4.47;;;;;;;;;;5075743;28;20427;-68
2022/10/01 11:23:35;;;;;;;6.40;5.63;;;;;;;;;;5072643;28;20456;-68
2022/10/01 11:26:09;;;;;;;5.73;4.20;;;;;;;;;;5057464;28;20485;-68
2022/10/01 11:28:44;;;;;;;6.90;4.83;;;;;;;;;;5054542;28;20476;-66
2022/10/01 11:31:21;;;;;;;5.70;5.20;;;;;;;;;;5055144;28;20451;-67
2022/10/01 11:33:56;;;;;;;5.97;5.40;;;;;;;;;;5055457;28;20438;-66
2022/10/01 11:36:27;;;;;;;7.77;6.77;;;;;;;;;;5055947;28;20518;-66
2022/10/01 11:38:56;;;;;;;6.80;6.30;;;;;;;;;;5055343;28;20436;-67
2022/10/01 11:41:30;;;;;;;6.83;6.17;;;;;;;;;;5055000;28;20449;-67
2022/10/01 11:43:59;;;;;;;8.43;7.03;;;;;;;;;;5055658;28;20435;-67
2022/10/01 11:46:38;;;;;;;10.10;7.50;;;;;;;;;;5056068;28;20447;-69
2022/10/01 11:49:16;;;;;;;8.27;7.00;;;;;;;;;;5055910;28;20521;-68
2022/10/01 11:51:45;;;;;;;10.83;6.97;;;;;;;;;;5055059;28;20513;-68
2022/10/01 11:54:14;;;;;;;8.07;6.60;;;;;;;;;;5055152;28;20448;-67
2022/10/01 11:59:31;;;;;;;6.30;5.70;;;;;;;;;;5054967;28;20412;-71
2022/10/01 12:02:03;;;;;;;5.07;4.70;;;;;;;;;;5073964;28;20525;-69
2022/10/01 12:04:32;;;;;;;5.70;4.60;;;;;;;;;;5075235;28;20434;-69
2022/10/01 12:07:03;;;;;;;9.60;5.20;;;;;;;;;;5074606;28;20494;-68
2022/10/01 12:09:35;;;;;;;3.53;3.33;;;;;;;;;;5074840;28;20556;-70
2022/10/01 12:12:05;;;;;;;4.30;3.90;;;;;;;;;;5074465;28;20440;-69
2022/10/01 12:14:38;;;;;;;6.60;4.13;;;;;;;;;;5074650;28;20523;-68
2022/10/01 12:17:12;;;;;;;3.10;2.60;;;;;;;;;;5073996;28;20471;-69
2022/10/01 12:19:41;;;;;;;3.20;2.70;;;;;;;;;;5073584;28;20490;-70
2022/10/01 12:22:12;;;;;;;2.83;2.53;;;;;;;;;;5074296;28;20457;-69
2022/10/01 12:24:41;;;;;;;4.13;2.77;;;;;;;;;;5074098;28;20484;-69
2022/10/01 12:27:19;;;;;;;2.60;2.40;;;;;;;;;;5074442;28;20443;-69
2022/10/01 12:29:52;;;;;;;3.17;2.80;;;;;;;;;;5073856;28;20466;-69
2022/10/01 12:32:23;;;;;;;2.30;2.10;;;;;;;;;;5074609;28;20455;-69
2022/10/01 12:35:01;;;;;;;4.23;2.70;;;;;;;;;;5074578;28;20439;-69
2022/10/01 12:37:34;;;;;;;2.77;2.43;;;;;;;;;;5074586;28;20435;-69
2022/10/01 12:40:09;;;;;;;3.27;2.60;;;;;;;;;;5074216;28;20435;-69
2022/10/01 12:42:43;;;;;;;3.30;2.97;;;;;;;;;;5074215;28;20433;-69
2022/10/01 12:45:16;;;;;;;3.10;2.80;;;;;;;;;;5074137;28;20511;-69
2022/10/01 12:47:47;;;;;;;4.37;2.70;;;;;;;;;;5073751;28;20455;-68
2022/10/01 12:50:22;;;;;;;3.67;2.93;;;;;;;;;;5073755;28;20449;-69
2022/10/01 12:52:57;;;;;;;3.27;2.97;;;;;;;;;;5074122;28;20520;-69
2022/10/01 12:55:30;;;;;;;5.50;2.70;;;;;;;;;;5073658;28;20934;-70
2022/10/01 12:58:02;;;;;;;5.70;2.67;;;;;;;;;;5073590;28;20454;-71
2022/10/01 13:00:31;;;;;;;4.27;3.13;;;;;;;;;;5073585;28;20444;-70
2022/10/01 13:03:21;;;;;;;4.13;2.60;;;;;;;;;;5073697;28;20439;-70
2022/10/01 13:05:55;;;;;;;7.17;3.50;;;;;;;;;;5074031;28;20427;-71
2022/10/01 13:08:30;;;;;;;4.50;3.67;;;;;;;;;;5073849;28;20438;-70
2022/10/01 13:11:04;;;;;;;5.53;3.30;;;;;;;;;;5073658;28;20511;-71
2022/10/01 13:13:33;;;;;;;5.60;3.97;;;;;;;;;;5073436;28;20429;-70
2022/10/01 13:16:04;;;;;;;8.33;4.20;;;;;;;;;;5073259;28;20479;-70
2022/10/01 13:18:36;;;;;;;5.73;4.50;;;;;;;;;;5073559;28;20426;-70
2022/10/01 13:21:06;;;;;;;4.77;3.90;;;;;;;;;;5072783;28;20442;-70
2022/10/01 13:23:39;;;;;;;6.37;3.40;;;;;;;;;;5074012;28;20429;-70
2022/10/01 13:26:08;;;;;;;5.83;3.50;;;;;;;;;;5073625;28;20426;-70
2022/10/01 13:28:50;;;;;;;5.17;2.90;;;;;;;;;;5073315;28;20439;-69
2022/10/01 13:31:18;;;;;;;4.23;2.73;;;;;;;;;;5072876;28;20449;-70
2022/10/01 13:33:55;;;;;;;5.43;2.70;;;;;;;;;;5073429;28;20799;-69
2022/10/01 13:36:29;;;;;;;8.40;2.50;;;;;;;;;;5072930;28;20442;-69
2022/10/01 13:38:56;;;;;;;10.27;3.20;;;;;;;;;;5073290;28;20432;-71
2022/10/01 13:41:24;;;;;;;5.13;2.30;;;;;;;;;;5072868;28;20454;-69
2022/10/01 13:43:57;;;;;;;4.63;2.30;;;;;;;;;;5072947;28;20444;-69
2022/10/01 13:46:25;;;;;;;4.63;2.30;;;;;;;;;;5073123;28;20444;-70
2022/10/01 13:48:53;;;;;;;11.67;2.73;;;;;;;;;;5073134;28;20508;-72
2022/10/01 13:51:20;;;;;;;4.43;2.30;;;;;;;;;;5072722;28;20453;-72
2022/10/01 13:53:51;;;;;;;3.30;2.60;;;;;;;;;;5073667;28;20447;-72
2022/10/01 13:56:28;;;;;;;6.40;3.07;;;;;;;;;;5073283;28;20534;-72
2022/10/01 13:58:57;;;;;;;9.63;2.90;;;;;;;;;;5073243;28;20425;-72
2022/10/01 14:01:29;;;;;;;5.37;2.40;;;;;;;;;;5072242;28;20809;-71
2022/10/01 14:04:00;;;;;;;6.70;2.50;;;;;;;;;;5073229;28;20538;-71
2022/10/01 14:06:29;;;;;;;11.90;2.83;;;;;;;;;;5073115;28;20437;-71
2022/10/01 14:09:00;;;;;;;9.73;2.67;;;;;;;;;;5072819;28;20476;-71
2022/10/01 14:17:07;;;;;;;10.70;2.50;;;;;;;;;;5072647;28;20460;-70
2022/10/01 14:19:34;;;;;;;7.43;2.43;;;;;;;;;;5072490;28;20961;-70
2022/10/01 14:22:17;;;;;;;4.30;2.27;;;;;;;;;;5072543;28;20804;-70
2022/10/01 14:24:49;;;;;;;8.70;2.57;;;;;;;;;;5072699;28;20905;-69
2022/10/01 14:27:21;;;;;;;8.27;2.57;;;;;;;;;;5072716;28;20441;-69
2022/10/01 14:29:56;;;;;;;3.27;1.80;;;;;;;;;;5072873;28;20478;-69
2022/10/01 14:32:34;;;;;;;6.60;1.93;;;;;;;;;;5072776;28;20518;-68
2022/10/01 14:35:07;;;;;;;7.90;2.63;;;;;;;;;;5072486;28;20475;-69
2022/10/01 14:37:37;;;;;;;3.23;1.87;;;;;;;;;;5072859;28;20511;-69
2022/10/01 14:40:13;;;;;;;6.47;1.77;;;;;;;;;;5073055;28;20447;-69
2022/10/01 14:42:40;;;;;;;7.37;2.60;;;;;;;;;;5075135;28;20515;-69
2022/10/01 14:45:17;;;;;;;5.70;1.93;;;;;;;;;;5076253;28;20520;-69
2022/10/01 14:47:44;;;;;;;4.53;1.90;;;;;;;;;;5076424;28;20464;-68
2022/10/01 14:50:17;;;;;;;7.00;2.20;;;;;;;;;;5076473;28;20599;-69
2022/10/01 14:52:48;;;;;;;4.77;1.97;;;;;;;;;;5076365;28;20419;-69
2022/10/01 14:55:16;;;;;;;5.67;2.17;;;;;;;;;;5075960;28;20503;-68
2022/10/01 14:57:45;;;;;;;5.73;2.57;;;;;;;;;;5075799;28;20936;-69
2022/10/01 15:00:15;;;;;;;6.77;2.00;;;;;;;;;;5076214;28;20453;-68
2022/10/01 15:02:46;;;;;;;3.27;2.10;;;;;;;;;;5075135;28;20427;-69
2022/10/01 15:05:19;;;;;;;7.30;2.20;;;;;;;;;;5074827;28;20472;-69
2022/10/01 15:07:47;;;;;;;6.27;2.30;;;;;;;;;;5076034;28;20448;-68
2022/10/01 15:10:17;;;;;;;4.60;1.90;;;;;;;;;;5075459;28;20471;-68